METAR Data
IDs: Format: Raw Decoded Include TAF

Data at: 1110 UTC 18 Jan 2022

LEVX 181100Z 22004KT 170V240 CAVOK 09/06 Q1031 NOSIG